• Join FlightAware (Why Join?)
  • Login
  • US Flag 
Gobble Gobble! 
08:56PM EST


 

Airport Tracker/Info


-or-


 

Live Flight TrackerFlight Track Log ✈ ASH3797 ✈ 28-Apr-2013 ✈ KPHL - KORD

Flight Track Log - Related Links

Times and Time Zones

All times are in EDT time to prevent confusion due to time zone crossing. See the ASH3797 flight status page for this flight to view local times or setup timezone preferences in your user account.

Time Position Orientation Groundspeed Altitude Reporting Facility
EDT Latitude Longitude Course Direction KTS MPH feet Rate Location/Type
08:03PM 39.8833 -75.2167 90° East 154 177 800  Level Philadelphia TRACON
08:03PM 39.8833 -75.2000 90° East 168 193 1,800 1,980 Climbing Philadelphia TRACON
08:04PM 39.9167 -75.1333 57° Northeast 247 284 3,800 2,220 Climbing Philadelphia TRACON
08:05PM 39.9833 -75.1333 360° North 290 334 6,300 2,640 Climbing Philadelphia TRACON
08:06PM 40.0833 -75.1833 339° North 297 342 9,700 1,620 Climbing Philadelphia TRACON
08:07PM 40.1333 -75.3000 299° West 388 447 10,100 720 Climbing Philadelphia TRACON
08:08PM 40.1489 -75.3711 286° West 424 488 11,000 1,860 Climbing New York Center
08:09PM 40.1942 -75.4936 296° West 396 456 13,100 1,380 Climbing New York Center
08:10PM 40.2561 -75.6094 305° West 390 449 13,800 1,320 Climbing New York Center
08:11PM 40.3267 -75.7150 311° West 390 449 15,800 1,680 Climbing New York Center
08:12PM 40.3933 -75.8153 311° West 395 455 17,200 1,680 Climbing New York Center
08:13PM 40.4467 -75.9336 301° West 400 460 19,300 1,800 Climbing New York Center
08:14PM 40.4694 -76.0744 282° West 379 436 20,900 1,380 Climbing New York Center
08:15PM 40.4903 -76.2153 281° West 390 449 22,100 1,380 Climbing New York Center
08:16PM 40.5147 -76.3592 283° West 396 456 23,700 1,440 Climbing New York Center
08:17PM 40.5350 -76.5031 281° West 396 456 25,100 1,200 Climbing New York Center
08:18PM 40.5550 -76.6439 281° West 396 456 26,200 1,080 Climbing New York Center
08:19PM 40.5686 -76.7928 277° West 401 461 27,300 1,440 Climbing New York Center
08:20PM 40.5819 -76.9386 277° West 401 461 29,100 1,380 Climbing New York Center
08:21PM 40.5953 -77.0794 277° West 401 461 30,100 1,260 Climbing New York Center
08:22PM 40.6067 -77.2144 276° West 391 450 31,700 1,380 Climbing New York Center
08:23PM 40.6203 -77.3469 278° West 386 444 33,000 1,440 Climbing New York Center
08:24PM 40.6300 -77.4711 276° West 368 423 34,700 1,020 Climbing New York Center
08:26PM 40.6508 -77.7422 276° West 344 396 36,200 780 Climbing Cleveland Center
08:27PM 40.6644 -77.8678 278° West 344 396 37,100 780 Climbing Cleveland Center
08:28PM 40.6819 -77.9903 281° West 349 402 37,800 420 Climbing Cleveland Center
08:29PM 40.6992 -78.1156 280° West 349 402 38,000 60 Climbing Cleveland Center
08:30PM 40.7164 -78.2408 280° West 354 407 38,000  Level Cleveland Center
08:31PM 40.7336 -78.3744 280° West 360 414 38,000  Level Cleveland Center
08:32PM 40.7531 -78.5108 281° West 372 428 38,000  Level Cleveland Center
08:33PM 40.7700 -78.6503 279° West 382 440 38,000  Level Cleveland Center
08:34PM 40.7889 -78.7842 281° West 382 440 38,000  Level Cleveland Center
08:35PM 40.8053 -78.9044 280° West 382 440 38,000  Level Cleveland Center
08:36PM 40.8239 -79.0356 281° West 372 428 38,000  Level Cleveland Center
08:37PM 40.8444 -79.1722 281° West 372 428 38,000  Level Cleveland Center
08:38PM 40.8606 -79.3175 278° West 383 441 38,000  Level Cleveland Center
08:39PM 40.8789 -79.4600 280° West 393 452 38,000  Level Cleveland Center
08:40PM 40.8989 -79.6025 281° West 393 452 38,000  Level Cleveland Center
08:41PM 40.9147 -79.7478 278° West 398 458 38,000  Level Cleveland Center
08:42PM 40.9322 -79.8933 279° West 403 464 38,000  Level Cleveland Center
08:43PM 40.9497 -80.0389 279° West 408 470 38,000  Level Cleveland Center
08:44PM 40.9669 -80.1844 279° West 408 470 38,000  Level Cleveland Center
08:45PM 40.9861 -80.3300 280° West 408 470 38,000  Level Cleveland Center
08:46PM 41.0031 -80.4758 279° West 408 470 38,000  Level Cleveland Center
08:47PM 41.0197 -80.6244 279° West 408 470 38,000  Level Cleveland Center
08:48PM 41.0364 -80.7675 279° West 408 470 38,000  Level Cleveland Center
08:49PM 41.0528 -80.9136 279° West 408 470 38,000  Level Cleveland Center
08:50PM 41.0606 -81.0789 274° West 408 470 38,000  Level Cleveland Center
08:51PM 41.0681 -81.2247 274° West 403 464 38,000  Level Cleveland Center
08:52PM 41.0756 -81.3597 274° West 403 464 38,000  Level Cleveland Center
08:53PM 41.0850 -81.5086 275° West 403 464 38,000  Level Cleveland Center
08:54PM 41.0939 -81.6603 274° West 408 470 38,000  Level Cleveland Center
08:55PM 41.1028 -81.8258 274° West 408 470 38,000  Level Cleveland Center
08:56PM 41.1114 -81.9747 274° West 408 470 38,000  Level Cleveland Center
08:57PM 41.1219 -82.1267 275° West 408 470 38,000  Level Cleveland Center
08:58PM 41.1303 -82.2758 274° West 413 475 38,000  Level Cleveland Center
08:59PM 41.1383 -82.4275 274° West 408 470 38,000  Level Cleveland Center
09:00PM 41.1461 -82.5767 274° West 408 470 38,000  Level Cleveland Center
09:01PM 41.1539 -82.7286 274° West 408 470 38,000  Level Cleveland Center
09:02PM 41.1592 -82.8806 273° West 413 475 38,000  Level Cleveland Center
09:03PM 41.1669 -83.0161 274° West 418 481 38,000  Level Cleveland Center
09:04PM 41.1736 -83.1844 273° West 418 481 38,000  Level Cleveland Center
09:05PM 41.1806 -83.3367 274° West 418 481 38,000  Level Cleveland Center
09:06PM 41.1892 -83.4942 274° West 425 489 38,000  Level Cleveland Center
09:07PM 41.1975 -83.6492 274° West 425 489 38,000  Level Cleveland Center
09:08PM 41.2014 -83.8067 272° West 425 489 38,000  Level Cleveland Center
09:09PM 41.2117 -83.9619 275° West 425 489 38,000 -300 Level Cleveland Center
09:10PM 41.2194 -84.1169 274° West 425 489 37,500 -660 Descending Cleveland Center
09:10PM 41.2200 -84.1394 272° West 428 493 37,200 -1,440 Descending Chicago Center
09:11PM 41.2250 -84.2969 272° West 427 491 35,700 -1,260 Descending Chicago Center
09:12PM 41.2292 -84.4553 272° West 427 491 34,700 -840 Descending Chicago Center
09:13PM 41.2342 -84.6461 272° West 431 496 34,000 -360 Descending Chicago Center
09:14PM 41.2400 -84.8078 273° West 436 502 34,000  Level Chicago Center
09:15PM 41.2467 -84.9731 273° West 445 512 34,000  Level Chicago Center
09:16PM 41.2525 -85.1392 273° West 448 516 34,000  Level Chicago Center
09:18PM 41.2586 -85.3061 273° West 449 517 34,000 -300 Level Chicago Center
09:19PM 41.2647 -85.4764 273° West 455 524 33,500 -1,260 Descending Chicago Center
09:20PM 41.2703 -85.6472 273° West 458 527 31,500 -2,940 Descending Chicago Center
09:21PM 41.2756 -85.8092 273° West 440 506 27,500 -3,180 Descending Chicago Center
09:22PM 41.2822 -85.9942 273° West 417 480 25,000 -1,260 Descending Chicago Center
09:23PM 41.3111 -86.1464 284° West 422 486 25,000 -480 Level Chicago Center
09:24PM 41.3500 -86.3008 289° West 438 504 24,100 -1,440 Descending Chicago Center
09:25PM 41.3883 -86.4544 288° West 436 502 22,100 -1,980 Descending Chicago Center
09:26PM 41.4247 -86.6000 288° West 417 480 20,100 -2,100 Descending Chicago Center
09:27PM 41.4628 -86.7528 288° West 391 450 17,800 -2,100 Descending Chicago Center
09:28PM 41.4944 -86.8819 288° West 373 429 15,800 -1,980 Descending Chicago Center
09:29PM 41.5261 -87.0094 288° West 366 421 13,800 -1,860 Descending Chicago Center
09:30PM 41.5558 -87.1344 288° West 356 410 12,000 -900 Descending Chicago Center
09:31PM 41.5878 -87.2531 290° West 345 397 12,000  Level Chicago Center
09:32PM 41.6606 -87.3714 309° West 343 395 12,000 -300 Level Chicago Center
09:33PM 41.7169 -87.4650 309° West 328 377 11,400 -1,140 Descending Chicago Center
09:34PM 41.7681 -87.5458 310° West 293 337 9,700 -1,860 Descending Chicago Center
09:35PM 41.8167 -87.6333 307° West 273 314 7,700 -1,320 Descending Chicago TRACON
09:36PM 41.8833 -87.7167 317° Northwest 280 322 7,000 -360 Descending Chicago TRACON
09:37PM 41.9500 -87.7167 360° North 231 266 7,000 -120 Level Chicago TRACON
09:38PM 42.0000 -87.7167 360° North 192 221 6,800 -840 Descending Chicago TRACON
09:39PM 42.0500 -87.7000 14° North 193 222 5,400 -1,620 Descending Chicago TRACON
09:40PM 42.0833 -87.7500 312° West 180 207 3,600 -1,560 Descending Chicago TRACON
09:41PM 42.0667 -87.8167 251° West 182 209 2,200 -900 Descending Chicago TRACON
09:42PM 42.0333 -87.8500 217° Southwest 139 160 1,800 -600 Descending Chicago TRACON
09:43PM 42.0167 -87.8833 236° Southwest 135 155 1,100 -720 Descending Chicago TRACON
09:45PM 41.9817 -87.9067 304° West  Level Estimated